Time;durP1;ratioP1;P1;durP2;ratioP2;P2;SDS_P1;SDS_P2;PMS_P1;PMS_P2;Temp;Humidity;BMP_temperature;BMP_pressure;BME280_temperature;BME280_humidity;BME280_pressure;Samples;Min_cycle;Max_cycle;Signal;HPM_P1;HPM_P2
2022/01/08 00:01:16;;;;;;;12.45;5.85;;;2.30;99.90;;;;;;6268408;22;20012;-92
2022/01/08 00:03:42;;;;;;;11.43;5.63;;;2.30;99.90;;;;;;6251564;22;20069;-93
2022/01/08 00:06:20;;;;;;;10.85;5.15;;;2.30;99.90;;;;;;6248958;22;20015;-93
2022/01/08 00:08:46;;;;;;;13.45;6.13;;;2.30;99.90;;;;;;6247241;22;20035;-90
2022/01/08 00:11:17;;;;;;;11.82;5.50;;;2.30;99.90;;;;;;6249046;22;20020;-91
2022/01/08 00:13:42;;;;;;;12.25;5.15;;;2.30;99.90;;;;;;6247821;22;20345;-92
2022/01/08 00:16:08;;;;;;;12.77;5.65;;;2.30;99.90;;;;;;6248795;22;20015;-92
2022/01/08 00:18:34;;;;;;;14.02;5.75;;;2.30;99.90;;;;;;6247365;22;20016;-92
2022/01/08 00:21:05;;;;;;;13.82;6.35;;;2.30;99.90;;;;;;6248728;22;20012;-92
2022/01/08 00:23:31;;;;;;;11.80;6.30;;;2.40;99.90;;;;;;6247871;22;20026;-93
2022/01/08 00:26:00;;;;;;;9.98;5.18;;;2.40;99.90;;;;;;6248321;22;20015;-93
2022/01/08 00:28:26;;;;;;;12.70;5.45;;;2.40;99.90;;;;;;6247391;22;20103;-92
2022/01/08 00:30:53;;;;;;;9.77;4.97;;;2.40;99.90;;;;;;6247262;22;20073;-94
2022/01/08 00:33:19;;;;;;;10.45;4.80;;;2.40;99.90;;;;;;6248310;22;20015;-92
2022/01/08 00:35:51;;;;;;;12.77;6.03;;;2.40;99.90;;;;;;6247241;22;20015;-93
2022/01/08 00:38:16;;;;;;;12.18;5.30;;;2.40;99.90;;;;;;6248031;22;20016;-91
2022/01/08 00:40:42;;;;;;;9.55;4.70;;;2.40;99.90;;;;;;6247217;22;20085;-93
2022/01/08 00:43:08;;;;;;;11.15;4.97;;;2.40;99.90;;;;;;6247884;22;20432;-92
2022/01/08 00:45:33;;;;;;;10.77;5.50;;;2.40;99.90;;;;;;6246463;22;20015;-92
2022/01/08 00:47:59;;;;;;;12.05;6.28;;;2.40;99.90;;;;;;6247984;22;20023;-93
2022/01/08 00:50:25;;;;;;;12.52;5.82;;;2.50;99.90;;;;;;6247778;22;20061;-93
2022/01/08 00:52:51;;;;;;;16.75;6.65;;;2.40;99.90;;;;;;6247562;22;20093;-92
2022/01/08 00:55:16;;;;;;;13.45;6.15;;;2.50;99.90;;;;;;6222238;22;20015;-92
2022/01/08 00:57:42;;;;;;;13.18;6.35;;;2.50;99.90;;;;;;6222080;22;20024;-92
2022/01/08 01:00:11;;;;;;;12.93;6.45;;;2.50;99.90;;;;;;6221861;22;20012;-92
2022/01/08 01:02:38;;;;;;;13.57;6.90;;;2.50;99.90;;;;;;6221731;22;20061;-92
2022/01/08 01:05:05;;;;;;;12.95;7.15;;;2.50;99.90;;;;;;6222568;22;20008;-92
2022/01/08 01:07:38;;;;;;;11.32;6.90;;;2.50;99.90;;;;;;6221566;22;20027;-93
2022/01/08 01:10:04;;;;;;;14.43;6.50;;;2.40;99.90;;;;;;6222605;22;20016;-93
2022/01/08 01:12:30;;;;;;;11.38;6.50;;;2.40;99.90;;;;;;6221792;22;20020;-92
2022/01/08 01:14:56;;;;;;;13.27;6.50;;;2.30;99.90;;;;;;6222393;22;20022;-92
2022/01/08 01:17:21;;;;;;;14.30;6.82;;;2.20;99.90;;;;;;6222753;22;20016;-92
2022/01/08 01:19:48;;;;;;;16.90;6.75;;;2.20;99.90;;;;;;6221445;22;20019;-92
2022/01/08 01:22:28;;;;;;;13.65;6.75;;;2.10;99.90;;;;;;6222866;22;20100;-92
2022/01/08 01:25:01;;;;;;;13.32;7.78;;;2.10;99.90;;;;;;6222058;22;20095;-92
2022/01/08 01:27:54;;;;;;;14.50;7.00;;;2.00;99.90;;;;;;6221819;22;20131;-92
2022/01/08 01:30:27;;;;;;;15.55;7.65;;;1.90;99.90;;;;;;6235568;22;20452;-92
2022/01/08 01:41:28;;;;;;;13.43;7.60;;;1.70;99.90;;;;;;6247693;22;20023;-92
2022/01/08 01:48:53;;;;;;;16.33;8.50;;;1.60;99.90;;;;;;6247101;22;20070;-93
2022/01/08 01:51:25;;;;;;;15.00;8.52;;;1.50;99.90;;;;;;6222041;22;20078;-92
2022/01/08 01:53:51;;;;;;;16.85;8.68;;;1.50;99.90;;;;;;6238313;22;20065;-92
2022/01/08 01:56:18;;;;;;;20.05;9.07;;;1.50;99.90;;;;;;6252443;22;20027;-92
2022/01/08 01:58:44;;;;;;;15.68;9.25;;;1.50;99.90;;;;;;6251101;22;20015;-91
2022/01/08 02:01:10;;;;;;;17.83;9.65;;;1.40;99.90;;;;;;6252881;22;20047;-93
2022/01/08 02:03:36;;;;;;;18.23;10.05;;;1.40;99.90;;;;;;6251708;22;20015;-92
2022/01/08 02:06:06;;;;;;;20.02;9.48;;;1.50;99.90;;;;;;6252475;22;20065;-92
2022/01/08 02:08:31;;;;;;;21.40;10.75;;;1.50;99.90;;;;;;6250020;22;20090;-93
2022/01/08 02:10:57;;;;;;;16.98;9.77;;;1.50;99.90;;;;;;6252490;22;20038;-92
2022/01/08 02:13:27;;;;;;;24.55;11.07;;;1.60;99.90;;;;;;6251948;22;20015;-93
2022/01/08 02:15:55;;;;;;;17.70;9.95;;;1.60;99.90;;;;;;6252212;22;20321;-92
2022/01/08 02:18:23;;;;;;;17.25;9.85;;;1.60;99.90;;;;;;6252445;22;20084;-92
2022/01/08 02:20:49;;;;;;;21.73;10.05;;;1.70;99.90;;;;;;6276834;22;20411;-93
2022/01/08 02:23:21;;;;;;;17.25;9.20;;;1.60;99.90;;;;;;6252427;22;20019;-93
2022/01/08 02:25:46;;;;;;;19.63;10.30;;;1.60;99.90;;;;;;6251449;22;20023;-93
2022/01/08 02:28:12;;;;;;;18.48;10.10;;;1.70;99.90;;;;;;6251903;22;20385;-93
2022/01/08 02:30:38;;;;;;;22.60;10.70;;;1.70;99.90;;;;;;6253511;22;20372;-93
2022/01/08 02:33:03;;;;;;;19.33;10.75;;;1.80;99.90;;;;;;6258685;22;20015;-93
2022/01/08 02:35:29;;;;;;;18.05;10.15;;;1.80;99.90;;;;;;6280050;22;20055;-93
2022/01/08 02:38:02;;;;;;;21.27;11.45;;;1.80;99.90;;;;;;6262581;22;20015;-93
2022/01/08 02:40:28;;;;;;;21.20;10.82;;;1.80;99.90;;;;;;6275445;22;20022;-93
2022/01/08 02:43:01;;;;;;;17.98;10.77;;;1.80;99.90;;;;;;6274871;22;20015;-93
2022/01/08 02:45:28;;;;;;;20.70;10.30;;;1.80;99.90;;;;;;6281898;22;20086;-93
2022/01/08 02:47:55;;;;;;;18.83;10.00;;;1.80;99.90;;;;;;6254301;22;20015;-92
2022/01/08 02:50:22;;;;;;;19.00;10.27;;;1.70;99.90;;;;;;6252745;22;20063;-92
2022/01/08 02:52:48;;;;;;;18.77;9.23;;;1.60;99.90;;;;;;6251457;22;20038;-91
2022/01/08 02:55:16;;;;;;;17.13;9.15;;;1.60;99.90;;;;;;6252418;22;20019;-92
2022/01/08 02:57:42;;;;;;;17.33;8.43;;;1.60;99.90;;;;;;6251251;22;20015;-92
2022/01/08 03:00:12;;;;;;;17.02;9.50;;;1.60;99.90;;;;;;6252128;22;20517;-92
2022/01/08 03:02:46;;;;;;;20.38;9.65;;;1.50;99.90;;;;;;6250972;22;20439;-93
2022/01/08 03:05:12;;;;;;;17.65;8.48;;;1.60;99.90;;;;;;6277552;22;20022;-93
2022/01/08 03:07:45;;;;;;;16.50;8.80;;;1.50;99.90;;;;;;6251296;22;20015;-92
2022/01/08 03:10:14;;;;;;;15.30;8.00;;;1.40;99.90;;;;;;6251938;22;20011;-92
2022/01/08 03:12:43;;;;;;;19.42;8.85;;;1.40;99.90;;;;;;6250940;22;20019;-92
2022/01/08 03:15:17;;;;;;;15.20;8.57;;;1.40;99.90;;;;;;6251898;22;20069;-94
2022/01/08 03:17:44;;;;;;;16.00;8.45;;;1.40;99.90;;;;;;6251865;22;20030;-92
2022/01/08 03:20:13;;;;;;;15.88;8.18;;;1.30;99.90;;;;;;6254004;22;20011;-93
2022/01/08 03:22:46;;;;;;;16.95;8.32;;;1.30;99.90;;;;;;6253441;22;20019;-93
2022/01/08 03:25:13;;;;;;;16.00;8.68;;;1.30;99.90;;;;;;6253696;22;20023;-92
2022/01/08 03:27:41;;;;;;;16.17;8.32;;;1.30;99.90;;;;;;6253628;22;20141;-92
2022/01/08 03:30:09;;;;;;;18.58;8.73;;;1.30;99.90;;;;;;6253679;22;20015;-92
2022/01/08 03:32:35;;;;;;;16.45;8.13;;;1.30;99.90;;;;;;6253122;22;20094;-92
2022/01/08 03:35:01;;;;;;;19.98;9.23;;;1.30;99.90;;;;;;6254079;22;20049;-92
2022/01/08 03:37:37;;;;;;;15.60;8.23;;;1.30;99.90;;;;;;6253696;22;20026;-92
2022/01/08 03:40:05;;;;;;;20.80;9.07;;;1.30;99.90;;;;;;6253184;22;20066;-92
2022/01/08 03:42:30;;;;;;;18.63;9.68;;;1.30;99.90;;;;;;6278256;22;20019;-92
2022/01/08 03:44:56;;;;;;;20.10;9.63;;;1.40;99.90;;;;;;6253947;22;20015;-92
2022/01/08 03:47:53;;;;;;;17.65;8.32;;;1.40;99.90;;;;;;6253820;22;20010;-92
2022/01/08 03:50:07;;;;;;;16.40;8.60;;;1.40;99.90;;;;;;6277449;22;20025;-92
2022/01/08 03:52:39;;;;;;;21.23;8.85;;;1.40;99.90;;;;;;6252993;22;20407;-92
2022/01/08 03:55:05;;;;;;;17.33;8.23;;;1.40;99.90;;;;;;6254672;22;20054;-92
2022/01/08 03:57:31;;;;;;;18.48;8.10;;;1.30;99.90;;;;;;6256774;22;20011;-91
2022/01/08 03:59:56;;;;;;;15.13;8.35;;;1.40;99.90;;;;;;6258395;22;20064;-92
2022/01/08 04:02:22;;;;;;;17.15;8.30;;;1.40;99.90;;;;;;6253796;22;20011;-91
2022/01/08 04:04:48;;;;;;;16.33;9.10;;;1.40;99.90;;;;;;6252602;22;20516;-92
2022/01/08 04:07:17;;;;;;;16.95;8.23;;;1.50;99.90;;;;;;6253734;22;20011;-91
2022/01/08 04:09:45;;;;;;;14.93;7.95;;;1.40;99.90;;;;;;6251559;22;20026;-92
2022/01/08 04:12:15;;;;;;;15.60;8.13;;;1.40;99.90;;;;;;6253486;22;20012;-92
2022/01/08 04:15:01;;;;;;;17.88;7.80;;;1.40;99.90;;;;;;6252487;22;20374;-93
2022/01/08 04:17:27;;;;;;;16.95;8.70;;;1.40;99.90;;;;;;6252545;22;20023;-92
2022/01/08 04:19:53;;;;;;;20.85;8.98;;;1.40;99.90;;;;;;6278231;22;20541;-92
2022/01/08 04:22:25;;;;;;;19.73;8.85;;;1.40;99.90;;;;;;6253634;22;20026;-92
2022/01/08 04:24:51;;;;;;;20.95;8.65;;;1.40;99.90;;;;;;6277618;22;20019;-92
2022/01/08 04:27:17;;;;;;;18.48;8.75;;;1.50;99.90;;;;;;6252833;22;20030;-91
2022/01/08 04:29:42;;;;;;;19.25;8.90;;;1.50;99.90;;;;;;6252368;22;20047;-92
2022/01/08 04:32:08;;;;;;;16.42;8.35;;;1.50;99.90;;;;;;6253332;22;20535;-92
2022/01/08 04:34:34;;;;;;;15.68;8.18;;;1.50;99.90;;;;;;6252120;22;20094;-92
2022/01/08 04:37:19;;;;;;;18.13;8.05;;;1.50;99.90;;;;;;6253196;22;20007;-92
2022/01/08 04:39:45;;;;;;;15.52;7.53;;;1.50;99.90;;;;;;6252332;22;20102;-92
2022/01/08 04:42:11;;;;;;;16.67;8.43;;;1.40;99.90;;;;;;6253049;22;20054;-92
2022/01/08 04:44:36;;;;;;;17.50;8.02;;;1.40;99.90;;;;;;6252139;22;20011;-93
2022/01/08 04:47:02;;;;;;;16.17;8.23;;;1.40;99.90;;;;;;6252876;22;20015;-93
2022/01/08 04:49:28;;;;;;;13.52;7.38;;;1.30;99.90;;;;;;6252929;22;20023;-92
2022/01/08 04:52:03;;;;;;;15.95;8.00;;;1.30;99.90;;;;;;6251963;22;20016;-91
2022/01/08 04:54:29;;;;;;;17.85;8.88;;;1.30;99.90;;;;;;6246555;22;20339;-92
2022/01/08 04:56:55;;;;;;;15.88;7.53;;;1.20;99.90;;;;;;6246946;22;20024;-93
2022/01/08 04:59:20;;;;;;;16.30;7.80;;;1.20;99.90;;;;;;6247804;22;20103;-91
2022/01/08 05:01:46;;;;;;;16.70;7.70;;;1.20;99.90;;;;;;6246523;22;20513;-93
2022/01/08 05:04:12;;;;;;;16.30;8.45;;;1.10;99.90;;;;;;6247669;22;20038;-91
2022/01/08 05:06:56;;;;;;;16.38;7.65;;;1.10;99.90;;;;;;6247206;22;20019;-91
2022/01/08 05:09:21;;;;;;;15.18;7.75;;;1.10;99.90;;;;;;6248350;22;20019;-91
2022/01/08 05:11:48;;;;;;;18.38;8.02;;;1.10;99.90;;;;;;6268240;22;20003;-92
2022/01/08 05:14:13;;;;;;;15.80;8.05;;;1.10;99.90;;;;;;6266183;22;20015;-92
2022/01/08 05:16:41;;;;;;;16.02;6.93;;;1.10;99.90;;;;;;6262886;22;20027;-91
2022/01/08 05:19:07;;;;;;;15.18;7.22;;;1.10;99.90;;;;;;6276075;22;20023;-92
2022/01/08 05:21:39;;;;;;;15.07;6.95;;;1.10;99.90;;;;;;6252510;22;20062;-93
2022/01/08 05:24:05;;;;;;;15.43;6.78;;;1.00;99.90;;;;;;6249718;22;20464;-92
2022/01/08 05:26:31;;;;;;;14.32;7.32;;;1.10;99.90;;;;;;6247042;22;20015;-92
2022/01/08 05:28:56;;;;;;;16.65;7.13;;;1.00;99.90;;;;;;6248467;22;20011;-91
2022/01/08 05:31:23;;;;;;;16.90;7.50;;;1.00;99.90;;;;;;6247522;22;20015;-92
2022/01/08 05:33:50;;;;;;;16.15;7.20;;;1.00;99.90;;;;;;6246174;22;20022;-91
2022/01/08 05:36:16;;;;;;;16.10;7.82;;;1.00;99.90;;;;;;6247097;22;20023;-92
2022/01/08 05:38:57;;;;;;;16.45;6.93;;;1.00;99.90;;;;;;6246383;22;20012;-92
2022/01/08 05:41:23;;;;;;;20.35;8.40;;;0.90;99.90;;;;;;6246906;22;20020;-92
2022/01/08 05:43:48;;;;;;;19.63;7.55;;;1.00;99.90;;;;;;6246379;22;20368;-92
2022/01/08 05:46:14;;;;;;;15.40;7.22;;;1.00;99.90;;;;;;6246746;22;20015;-92
2022/01/08 05:48:40;;;;;;;15.90;7.43;;;1.00;99.90;;;;;;6246336;22;20102;-92
2022/01/08 05:51:06;;;;;;;16.23;7.03;;;1.00;99.90;;;;;;6246325;22;20019;-91
2022/01/08 05:53:41;;;;;;;16.45;6.90;;;1.00;99.90;;;;;;6271677;22;20532;-92
2022/01/08 05:56:06;;;;;;;15.20;6.68;;;0.90;99.90;;;;;;6247137;22;20029;-90
2022/01/08 05:58:32;;;;;;;14.32;5.90;;;0.90;99.90;;;;;;6246016;22;20091;-91
2022/01/08 06:00:57;;;;;;;14.18;6.13;;;0.90;99.90;;;;;;6246784;22;20069;-91
2022/01/08 06:03:23;;;;;;;17.70;6.88;;;0.90;99.90;;;;;;6246656;22;20165;-91
2022/01/08 06:05:49;;;;;;;11.48;5.90;;;0.90;99.90;;;;;;6245760;22;20437;-92
2022/01/08 06:08:28;;;;;;;13.88;6.70;;;0.90;99.90;;;;;;6246763;22;20019;-92
2022/01/08 06:10:53;;;;;;;14.93;6.25;;;0.90;99.90;;;;;;6271530;22;20012;-91
2022/01/08 06:13:19;;;;;;;15.35;5.93;;;0.90;99.90;;;;;;6246192;22;20016;-91
2022/01/08 06:15:44;;;;;;;16.30;6.75;;;0.90;99.90;;;;;;6245694;22;20020;-92
2022/01/08 06:18:10;;;;;;;15.30;6.72;;;0.90;99.90;;;;;;6251596;22;20015;-91
2022/01/08 06:20:35;;;;;;;13.57;6.35;;;0.90;99.90;;;;;;6250374;22;20019;-91
2022/01/08 06:23:07;;;;;;;16.38;6.32;;;0.90;99.90;;;;;;6251641;22;20539;-92
2022/01/08 06:25:33;;;;;;;14.57;6.43;;;1.10;99.90;;;;;;6276323;22;20390;-91
2022/01/08 06:27:58;;;;;;;14.82;6.78;;;1.00;99.90;;;;;;6252034;22;20016;-94
2022/01/08 06:30:24;;;;;;;16.80;7.32;;;0.90;99.90;;;;;;6257206;22;20064;-92
2022/01/08 06:32:50;;;;;;;17.40;6.80;;;0.90;99.90;;;;;;6261653;22;20030;-95
2022/01/08 06:35:15;;;;;;;14.30;6.68;;;0.90;99.90;;;;;;6264555;22;20026;-96
2022/01/08 06:37:47;;;;;;;16.98;6.55;;;0.90;99.90;;;;;;6261310;22;20050;-94
2022/01/08 06:40:13;;;;;;;14.25;6.85;;;0.90;99.90;;;;;;6255088;22;20022;-94
2022/01/08 06:42:39;;;;;;;13.93;6.57;;;0.90;99.90;;;;;;6254138;22;20015;-94
2022/01/08 06:45:05;;;;;;;15.23;6.43;;;0.90;99.90;;;;;;6256178;22;20098;-95
2022/01/08 06:47:32;;;;;;;13.93;6.05;;;0.90;99.90;;;;;;6262373;22;20015;-96
2022/01/08 06:49:58;;;;;;;14.45;6.53;;;0.90;99.90;;;;;;6283671;22;20703;-92
2022/01/08 06:52:32;;;;;;;18.67;6.88;;;0.80;99.90;;;;;;6277312;22;20090;-94
2022/01/08 06:54:58;;;;;;;13.60;6.15;;;0.80;99.90;;;;;;6278528;22;20012;-94
2022/01/08 06:57:23;;;;;;;17.20;7.45;;;0.80;99.90;;;;;;6263282;22;20072;-93
2022/01/08 06:59:49;;;;;;;16.70;6.32;;;0.80;99.90;;;;;;6252089;22;20321;-92
2022/01/08 07:02:15;;;;;;;15.50;6.85;;;0.80;99.90;;;;;;6252551;22;20047;-94
2022/01/08 07:04:40;;;;;;;16.55;6.50;;;0.80;99.90;;;;;;6252509;22;20094;-95
2022/01/08 07:07:18;;;;;;;13.90;5.78;;;0.90;99.90;;;;;;6252823;22;20026;-94
2022/01/08 07:09:45;;;;;;;13.82;6.45;;;0.80;99.90;;;;;;6251534;22;20118;-93
2022/01/08 07:12:10;;;;;;;16.00;6.05;;;0.80;99.90;;;;;;6278208;22;20018;-92
2022/01/08 07:14:36;;;;;;;16.65;6.72;;;0.80;99.90;;;;;;6250728;22;20015;-91
2022/01/08 07:17:02;;;;;;;16.10;6.40;;;0.80;99.90;;;;;;6251222;22;20015;-92
2022/01/08 07:19:27;;;;;;;15.82;7.03;;;0.80;99.90;;;;;;6250461;22;20015;-91
2022/01/08 07:22:02;;;;;;;14.98;6.47;;;0.80;99.90;;;;;;6251378;22;20025;-92
2022/01/08 07:24:27;;;;;;;14.55;6.43;;;0.80;99.90;;;;;;6251277;22;20049;-93
2022/01/08 07:26:53;;;;;;;17.25;6.13;;;0.80;99.90;;;;;;6251254;22;20012;-94
2022/01/08 07:29:18;;;;;;;14.80;6.65;;;0.80;99.90;;;;;;6252240;22;20020;-91
2022/01/08 07:31:44;;;;;;;17.40;6.88;;;0.80;99.90;;;;;;6249885;22;20023;-92
2022/01/08 07:34:10;;;;;;;14.75;6.35;;;0.80;99.90;;;;;;6276593;22;20348;-91
2022/01/08 07:36:35;;;;;;;16.95;6.28;;;0.80;99.90;;;;;;6250337;22;20015;-91
2022/01/08 07:39:07;;;;;;;17.27;7.00;;;0.80;99.90;;;;;;6251679;22;20023;-92
2022/01/08 07:41:33;;;;;;;11.73;5.43;;;0.80;99.90;;;;;;6252112;22;20038;-93
2022/01/08 07:43:58;;;;;;;14.30;6.38;;;0.80;99.90;;;;;;6258690;22;20003;-91
2022/01/08 07:46:24;;;;;;;16.77;6.20;;;0.80;99.90;;;;;;6278833;22;20051;-89
2022/01/08 07:48:50;;;;;;;14.75;6.45;;;0.80;99.90;;;;;;6257502;22;20016;-91
2022/01/08 07:51:15;;;;;;;15.75;5.65;;;1.00;99.90;;;;;;6277165;22;19999;-92
2022/01/08 07:53:41;;;;;;;15.40;5.88;;;0.80;99.90;;;;;;6270104;22;20030;-92
2022/01/08 07:56:06;;;;;;;13.10;5.57;;;0.80;99.90;;;;;;6278300;22;20015;-92
2022/01/08 07:58:32;;;;;;;13.13;6.40;;;0.80;99.90;;;;;;6250068;22;20444;-89
2022/01/08 08:00:58;;;;;;;13.55;5.63;;;0.90;99.90;;;;;;6248426;22;20436;-89
2022/01/08 08:03:24;;;;;;;14.82;5.53;;;0.80;99.90;;;;;;6250629;22;20018;-93
2022/01/08 08:05:50;;;;;;;15.23;5.50;;;0.90;99.90;;;;;;6251500;22;20022;-92
2022/01/08 08:08:23;;;;;;;11.95;5.30;;;0.90;99.90;;;;;;6251639;22;20023;-90
2022/01/08 08:10:50;;;;;;;15.98;5.80;;;0.90;99.90;;;;;;6274557;22;20011;-89
2022/01/08 08:13:17;;;;;;;12.18;5.30;;;1.00;99.90;;;;;;6272751;22;20062;-87
2022/01/08 08:15:43;;;;;;;11.68;5.15;;;1.00;99.90;;;;;;6271300;22;20364;-88
2022/01/08 08:18:08;;;;;;;15.10;6.72;;;1.00;99.90;;;;;;6247799;22;20019;-88
2022/01/08 08:20:34;;;;;;;12.55;5.70;;;1.10;99.90;;;;;;6272189;22;20019;-88
2022/01/08 08:23:02;;;;;;;16.45;6.47;;;1.10;99.90;;;;;;6273038;22;20034;-89
2022/01/08 08:25:28;;;;;;;14.77;5.93;;;1.10;99.90;;;;;;6246568;22;20017;-89
2022/01/08 08:27:54;;;;;;;16.42;6.20;;;1.10;99.90;;;;;;6247131;22;20097;-89
2022/01/08 08:30:21;;;;;;;14.65;5.88;;;1.10;99.90;;;;;;6246034;22;20069;-88
2022/01/08 08:32:47;;;;;;;13.13;5.65;;;1.20;99.90;;;;;;6271791;22;20023;-87
2022/01/08 08:35:12;;;;;;;11.48;5.32;;;1.20;99.90;;;;;;6247393;22;20117;-88
2022/01/08 08:37:38;;;;;;;15.40;6.53;;;1.20;99.90;;;;;;6271963;22;20065;-89
2022/01/08 08:40:04;;;;;;;11.30;5.43;;;1.20;99.90;;;;;;6246895;22;20011;-90
2022/01/08 08:42:30;;;;;;;23.95;8.05;;;1.20;99.90;;;;;;6273488;22;20019;-90
2022/01/08 08:44:56;;;;;;;15.55;6.75;;;1.20;99.90;;;;;;6250907;22;20494;-90
2022/01/08 08:47:21;;;;;;;12.15;5.93;;;1.20;99.90;;;;;;6249931;22;20011;-89
2022/01/08 08:49:48;;;;;;;14.23;6.18;;;1.30;99.90;;;;;;6250027;22;20093;-89
2022/01/08 08:52:14;;;;;;;13.77;5.82;;;1.30;99.90;;;;;;6250829;22;20018;-90
2022/01/08 08:54:41;;;;;;;14.00;5.82;;;1.30;99.90;;;;;;6248807;22;20047;-90
2022/01/08 08:57:07;;;;;;;14.27;6.55;;;1.40;99.90;;;;;;6276402;22;20098;-89
2022/01/08 08:59:33;;;;;;;14.23;6.47;;;1.40;99.90;;;;;;6275538;22;20015;-89
2022/01/08 09:01:59;;;;;;;15.30;6.40;;;1.50;99.90;;;;;;6251128;22;20336;-89
2022/01/08 09:04:24;;;;;;;17.30;5.97;;;1.50;99.90;;;;;;6250944;22;20046;-90
2022/01/08 09:06:50;;;;;;;14.75;6.30;;;1.50;99.90;;;;;;6250213;22;20324;-88
2022/01/08 09:09:22;;;;;;;14.38;5.78;;;1.50;99.90;;;;;;6276414;22;20023;-89
2022/01/08 09:11:48;;;;;;;17.75;6.75;;;1.60;99.90;;;;;;6249662;22;20015;-90
2022/01/08 09:14:14;;;;;;;15.07;7.05;;;1.60;99.90;;;;;;6249908;22;20015;-89
2022/01/08 09:16:46;;;;;;;17.48;7.55;;;1.70;99.90;;;;;;6274825;22;20041;-90
2022/01/08 09:19:12;;;;;;;14.45;6.70;;;1.80;99.90;;;;;;6250510;22;20393;-89
2022/01/08 09:21:38;;;;;;;14.00;6.78;;;1.80;99.90;;;;;;6249849;22;20011;-90
2022/01/08 09:24:26;;;;;;;17.38;6.95;;;1.90;99.90;;;;;;6250384;22;20042;-89
2022/01/08 09:26:51;;;;;;;18.42;7.65;;;1.90;99.90;;;;;;6250009;22;20016;-89
2022/01/08 09:29:17;;;;;;;16.80;6.78;;;1.90;99.90;;;;;;6250298;22;20303;-89
2022/01/08 09:31:43;;;;;;;14.75;7.13;;;2.00;99.90;;;;;;6249797;22;20023;-89
2022/01/08 09:34:09;;;;;;;13.88;7.00;;;2.00;99.90;;;;;;6248940;22;20018;-89
2022/01/08 09:36:37;;;;;;;16.52;7.18;;;2.00;99.90;;;;;;6273019;22;20329;-90
2022/01/08 09:39:09;;;;;;;19.80;7.75;;;2.00;99.90;;;;;;6249117;22;20068;-90
2022/01/08 09:41:35;;;;;;;15.30;7.60;;;2.10;99.90;;;;;;6249766;22;20007;-90
2022/01/08 09:44:01;;;;;;;17.50;8.00;;;2.10;99.90;;;;;;6250493;22;20015;-90
2022/01/08 09:46:27;;;;;;;14.20;8.07;;;2.10;99.90;;;;;;6249968;22;20057;-89
2022/01/08 09:48:52;;;;;;;13.90;8.45;;;2.10;99.90;;;;;;6250375;22;20336;-89
2022/01/08 09:51:19;;;;;;;18.88;8.48;;;2.20;99.90;;;;;;6274076;22;20018;-90
2022/01/08 09:53:45;;;;;;;17.10;9.23;;;2.20;99.90;;;;;;6249037;22;20027;-90
2022/01/08 09:56:11;;;;;;;17.73;9.13;;;2.20;99.90;;;;;;6276268;22;20019;-90
2022/01/08 09:58:37;;;;;;;17.08;8.75;;;2.20;99.90;;;;;;6249073;22;20094;-90
2022/01/08 10:01:25;;;;;;;15.45;9.05;;;2.30;99.90;;;;;;6250697;22;20058;-90
2022/01/08 10:03:52;;;;;;;17.67;9.48;;;2.30;99.90;;;;;;6276303;22;20021;-93
2022/01/08 10:06:29;;;;;;;19.80;9.65;;;2.30;99.90;;;;;;6251005;22;20022;-92
2022/01/08 10:09:02;;;;;;;16.58;9.20;;;2.40;99.90;;;;;;6276644;22;20021;-90
2022/01/08 10:11:28;;;;;;;16.95;9.70;;;2.50;99.90;;;;;;6250618;22;20046;-94
2022/01/08 10:14:02;;;;;;;17.60;9.90;;;2.40;99.90;;;;;;6254332;22;20089;-94
2022/01/08 10:19:24;;;;;;;20.65;11.82;;;2.50;99.90;;;;;;6299461;22;20050;-93
2022/01/08 10:21:52;;;;;;;17.65;10.95;;;2.60;99.90;;;;;;6272792;22;20034;-93
2022/01/08 10:24:27;;;;;;;18.75;10.90;;;2.60;99.90;;;;;;6268485;22;20060;-93
2022/01/08 10:27:04;;;;;;;19.10;10.90;;;2.70;99.90;;;;;;6266049;22;20021;-93
2022/01/08 10:29:29;;;;;;;18.85;10.55;;;2.80;99.90;;;;;;6263501;22;20015;-92
2022/01/08 10:31:55;;;;;;;19.38;11.13;;;2.80;99.90;;;;;;6259714;22;20030;-93
2022/01/08 10:34:26;;;;;;;20.13;11.38;;;2.90;99.90;;;;;;6259589;22;20018;-94
2022/01/08 10:36:55;;;;;;;18.98;10.88;;;2.90;99.90;;;;;;6255252;22;20023;-95
2022/01/08 10:39:32;;;;;;;19.55;10.45;;;2.90;99.90;;;;;;6273600;22;20019;-95
2022/01/08 10:42:01;;;;;;;20.67;11.32;;;3.00;99.90;;;;;;6253111;22;20436;-95
2022/01/08 10:44:31;;;;;;;19.08;11.35;;;3.00;99.90;;;;;;6249639;22;20090;-91
2022/01/08 10:47:02;;;;;;;20.05;10.35;;;3.00;99.90;;;;;;6257509;22;20030;-95
2022/01/08 10:49:33;;;;;;;16.48;9.95;;;3.10;99.90;;;;;;6257948;22;20098;-96
2022/01/08 10:52:00;;;;;;;;;;;3.10;99.90;;;;;;6264455;22;20026;-95
2022/01/08 10:54:28;;;;;;;19.30;10.35;;;3.10;99.90;;;;;;6256095;22;19919;-95
2022/01/08 10:57:02;;;;;;;17.13;10.13;;;3.20;99.90;;;;;;6284979;22;20076;-94
2022/01/08 10:59:29;;;;;;;17.40;9.90;;;3.20;99.90;;;;;;6255822;22;20309;-96
2022/01/08 11:02:08;;;;;;;17.25;9.80;;;3.30;99.90;;;;;;6257755;22;20021;-94
2022/01/08 11:04:46;;;;;;;16.15;9.90;;;3.30;99.90;;;;;;6254988;22;20015;-95
2022/01/08 11:07:34;;;;;;;18.55;10.35;;;3.50;99.90;;;;;;6250450;22;20019;-96
2022/01/08 11:10:05;;;;;;;20.63;9.77;;;3.40;99.90;;;;;;6272067;22;20019;-96
2022/01/08 11:12:39;;;;;;;18.10;10.23;;;3.50;99.90;;;;;;6271807;22;20041;-95
2022/01/08 11:17:52;;;;;;;16.38;9.63;;;3.60;99.90;;;;;;6301307;22;20063;-96
2022/01/08 11:23:11;;;;;;;16.20;9.65;;;3.70;99.90;;;;;;6229167;23;20021;-96
2022/01/08 11:25:38;;;;;;;19.73;11.13;;;3.70;99.90;;;;;;6201291;23;20048;-96
2022/01/08 11:28:10;;;;;;;16.35;10.05;;;3.70;99.90;;;;;;6176572;23;20013;-94
2022/01/08 11:31:01;;;;;;;17.23;10.13;;;3.70;99.90;;;;;;6171294;23;20027;-95
2022/01/08 11:33:35;;;;;;;17.23;10.23;;;3.70;99.90;;;;;;6180026;23;20023;-96
2022/01/08 11:36:01;;;;;;;17.92;10.55;;;3.70;99.90;;;;;;6179112;23;20112;-95
2022/01/08 11:38:45;;;;;;;18.13;11.05;;;3.70;99.90;;;;;;6176613;23;20410;-96
2022/01/08 11:41:11;;;;;;;17.50;11.55;;;3.80;99.90;;;;;;6171664;23;20446;-95
2022/01/08 11:43:37;;;;;;;16.80;10.95;;;3.80;99.90;;;;;;6169453;23;20028;-95
2022/01/08 11:46:07;;;;;;;18.67;12.40;;;3.80;99.90;;;;;;6175455;23;20091;-94
2022/01/08 11:48:42;;;;;;;16.42;11.60;;;3.90;99.90;;;;;;6163167;23;20074;-96
2022/01/08 11:51:13;;;;;;;18.88;11.65;;;4.00;99.90;;;;;;6189730;23;20017;-95
2022/01/08 11:53:56;;;;;;;19.77;12.63;;;4.00;99.90;;;;;;6162103;23;20012;-94
2022/01/08 11:56:34;;;;;;;18.85;12.93;;;4.00;99.90;;;;;;6163234;23;20024;-95
2022/01/08 11:59:09;;;;;;;21.25;13.43;;;4.10;99.90;;;;;;6166348;23;20108;-94
2022/01/08 12:01:36;;;;;;;23.55;13.38;;;4.20;99.90;;;;;;6167160;23;20072;-95
2022/01/08 12:04:03;;;;;;;19.33;14.10;;;4.20;99.90;;;;;;6168950;23;20021;-95
2022/01/08 12:06:30;;;;;;;21.98;14.77;;;4.30;99.90;;;;;;6168617;23;20017;-94
2022/01/08 12:09:26;;;;;;;20.08;15.57;;;4.30;99.90;;;;;;6166214;23;20024;-95
2022/01/08 12:11:58;;;;;;;20.23;15.60;;;4.30;99.90;;;;;;6164593;23;20019;-96
2022/01/08 12:14:27;;;;;;;21.02;15.15;;;4.30;99.90;;;;;;6169143;23;20034;-95
2022/01/08 12:17:11;;;;;;;21.83;16.13;;;4.30;99.90;;;;;;6172275;23;20020;-95
2022/01/08 12:19:43;;;;;;;22.42;16.92;;;4.20;99.90;;;;;;6172452;23;20027;-94
2022/01/08 12:22:18;;;;;;;23.10;17.45;;;4.20;99.90;;;;;;6171853;23;20020;-96
2022/01/08 12:24:52;;;;;;;24.70;18.30;;;4.20;99.90;;;;;;6167483;23;20027;-94
2022/01/08 12:27:45;;;;;;;22.90;18.13;;;4.30;99.90;;;;;;6177561;23;20016;-96
2022/01/08 12:30:17;;;;;;;23.38;17.65;;;4.30;99.90;;;;;;6170525;23;20021;-96
2022/01/08 12:32:49;;;;;;;22.73;17.80;;;4.30;99.90;;;;;;6186930;23;20023;-95
2022/01/08 12:35:19;;;;;;;24.88;17.58;;;4.30;99.90;;;;;;6175709;23;20039;-95
2022/01/08 12:38:04;;;;;;;21.40;16.93;;;4.20;99.90;;;;;;6175540;23;20032;-94
2022/01/08 12:40:50;;;;;;;23.60;17.92;;;4.20;99.90;;;;;;6165271;23;20028;-95
2022/01/08 12:43:30;;;;;;;26.80;19.63;;;4.20;99.90;;;;;;6157182;23;20132;-96
2022/01/08 12:46:17;;;;;;;26.73;18.73;;;4.10;99.90;;;;;;6168145;23;20023;-96
2022/01/08 12:49:08;;;;;;;25.88;18.63;;;4.10;99.90;;;;;;6165841;23;20020;-95
2022/01/08 12:51:43;;;;;;;24.40;19.25;;;4.10;99.90;;;;;;6182188;22;20015;-94
2022/01/08 12:54:20;;;;;;;27.45;19.92;;;4.10;99.90;;;;;;6186866;23;20052;-96
2022/01/08 12:56:56;;;;;;;25.35;20.65;;;4.10;99.90;;;;;;6182392;23;20021;-96
2022/01/08 12:59:30;;;;;;;25.02;20.75;;;4.10;99.90;;;;;;6186652;23;20072;-93
2022/01/08 13:01:57;;;;;;;25.00;19.55;;;4.10;99.90;;;;;;6183712;23;20005;-94
2022/01/08 13:04:23;;;;;;;25.52;18.85;;;4.10;99.90;;;;;;6175314;23;20040;-96
2022/01/08 13:06:49;;;;;;;26.30;19.30;;;4.10;99.90;;;;;;6170871;23;20024;-96
2022/01/08 13:09:22;;;;;;;28.10;19.88;;;4.20;99.90;;;;;;6205854;23;20055;-95
2022/01/08 13:11:49;;;;;;;25.77;19.30;;;4.10;99.90;;;;;;6204983;23;20044;-96
2022/01/08 13:14:17;;;;;;;24.17;19.40;;;4.10;99.90;;;;;;6196931;23;20016;-96
2022/01/08 13:16:48;;;;;;;27.77;20.00;;;4.10;99.90;;;;;;6173196;23;20473;-96